createdAt,value
2019-05-19T00:01:49.878Z,12.63
2019-05-19T00:04:21.474Z,13.50
2019-05-19T00:06:53.068Z,14.13
2019-05-19T00:09:25.954Z,12.80
2019-05-19T00:11:57.450Z,14.47
2019-05-19T00:14:29.020Z,14.37
2019-05-19T00:17:00.494Z,14.07
2019-05-19T00:19:32.362Z,16.33
2019-05-19T00:22:03.939Z,13.57
2019-05-19T00:24:35.480Z,14.33
2019-05-19T00:27:07.079Z,17.03
2019-05-19T00:29:38.660Z,14.10
2019-05-19T00:32:10.613Z,16.57
2019-05-19T00:34:42.222Z,16.43
2019-05-19T00:37:13.746Z,15.63
2019-05-19T00:39:45.574Z,13.87
2019-05-19T00:42:18.202Z,15.23
2019-05-19T00:44:49.877Z,14.93
2019-05-19T00:47:21.363Z,13.90
2019-05-19T00:49:52.846Z,14.57
2019-05-19T00:52:24.774Z,14.77
2019-05-19T00:54:56.382Z,12.93
2019-05-19T00:57:29.156Z,17.60
2019-05-19T01:00:01.898Z,16.80
2019-05-19T01:02:35.234Z,15.87
2019-05-19T01:05:08.442Z,18.27
2019-05-19T01:07:39.982Z,15.73
2019-05-19T01:10:11.905Z,15.67
2019-05-19T01:12:43.472Z,14.90
2019-05-19T01:15:16.042Z,14.43
2019-05-19T01:17:47.688Z,14.43
2019-05-19T01:20:20.416Z,14.27
2019-05-19T01:22:51.938Z,14.27
2019-05-19T01:25:23.842Z,14.17
2019-05-19T01:27:55.990Z,12.73
2019-05-19T01:30:27.617Z,13.70
2019-05-19T01:32:59.135Z,14.07
2019-05-19T01:35:30.635Z,14.20
2019-05-19T01:38:02.115Z,16.07
2019-05-19T01:40:33.647Z,15.23
2019-05-19T01:43:05.180Z,12.77
2019-05-19T01:45:37.069Z,12.70
2019-05-19T01:48:09.710Z,14.30
2019-05-19T01:50:41.270Z,13.33
2019-05-19T01:53:12.730Z,13.93
2019-05-19T01:55:44.206Z,12.77
2019-05-19T01:58:15.755Z,12.87
2019-05-19T02:00:47.273Z,14.80
2019-05-19T02:03:18.732Z,14.40
2019-05-19T02:05:50.292Z,14.33
2019-05-19T02:08:21.818Z,13.30
2019-05-19T02:10:53.291Z,14.33
2019-05-19T02:13:25.247Z,13.87
2019-05-19T02:15:56.724Z,13.00
2019-05-19T02:18:28.298Z,13.37
2019-05-19T02:20:59.855Z,13.77
2019-05-19T02:23:31.544Z,13.27
2019-05-19T02:26:03.060Z,13.17
2019-05-19T02:28:34.624Z,13.77
2019-05-19T02:31:06.403Z,14.23
2019-05-19T02:33:37.884Z,14.47
2019-05-19T02:36:09.479Z,13.57
2019-05-19T02:38:41.509Z,13.13
2019-05-19T02:41:15.658Z,13.67
2019-05-19T02:43:49.854Z,13.63
2019-05-19T02:46:22.142Z,15.17
2019-05-19T02:48:55.388Z,19.73
2019-05-19T02:51:31.326Z,17.30
2019-05-19T02:54:04.807Z,16.57
2019-05-19T02:56:37.496Z,15.83
2019-05-19T02:59:09.108Z,15.57
2019-05-19T03:01:59.502Z,15.60
2019-05-19T03:04:31.475Z,19.83
2019-05-19T03:07:04.067Z,18.90
2019-05-19T03:09:35.567Z,17.17
2019-05-19T03:12:08.039Z,18.17
2019-05-19T03:14:39.561Z,15.40
2019-05-19T03:17:11.159Z,15.23
2019-05-19T03:19:42.767Z,16.43
2019-05-19T03:22:14.190Z,22.23
2019-05-19T03:24:46.319Z,17.23
2019-05-19T03:27:18.203Z,15.27
2019-05-19T03:29:54.496Z,35.73
2019-05-19T03:32:31.988Z,36.77
2019-05-19T03:35:03.433Z,20.20
2019-05-19T03:37:35.079Z,18.90
2019-05-19T03:40:20.245Z,16.63
2019-05-19T03:42:53.273Z,16.37
2019-05-19T03:45:24.742Z,15.20
2019-05-19T03:47:56.255Z,14.83
2019-05-19T03:50:27.777Z,14.10
2019-05-19T03:52:59.338Z,14.70
2019-05-19T03:55:30.890Z,13.40
2019-05-19T03:58:02.458Z,14.27
2019-05-19T04:00:33.915Z,14.63
2019-05-19T04:03:05.878Z,15.60
2019-05-19T04:05:37.323Z,14.93
2019-05-19T04:08:08.814Z,19.07
2019-05-19T04:10:40.375Z,17.33
2019-05-19T04:13:12.084Z,15.97
2019-05-19T04:15:43.545Z,17.77
2019-05-19T04:18:15.092Z,16.23
2019-05-19T04:20:46.927Z,15.90
2019-05-19T04:23:18.399Z,15.37
2019-05-19T04:25:49.883Z,14.70
2019-05-19T04:28:21.332Z,14.27
2019-05-19T04:30:52.782Z,17.23
2019-05-19T04:33:24.275Z,22.13
2019-05-19T04:35:57.600Z,17.83
2019-05-19T04:38:28.892Z,18.63
2019-05-19T04:41:00.383Z,18.17
2019-05-19T04:43:31.847Z,19.60
2019-05-19T04:46:03.367Z,17.47
2019-05-19T04:48:34.836Z,17.40
2019-05-19T04:51:06.346Z,17.07
2019-05-19T04:53:37.803Z,16.47
2019-05-19T04:56:09.301Z,16.63
2019-05-19T04:58:40.907Z,18.37
2019-05-19T05:01:12.454Z,17.47
2019-05-19T05:03:43.903Z,17.60
2019-05-19T05:06:15.380Z,17.03
2019-05-19T05:08:47.166Z,16.67
2019-05-19T05:11:18.656Z,17.00
2019-05-19T05:13:50.466Z,17.07
2019-05-19T05:16:21.934Z,17.27
2019-05-19T05:18:53.518Z,16.90
2019-05-19T05:21:24.966Z,17.60
2019-05-19T05:23:56.470Z,17.67
2019-05-19T05:26:28.039Z,14.90
2019-05-19T05:28:59.550Z,15.43
2019-05-19T05:31:31.569Z,15.07
2019-05-19T05:34:09.469Z,17.00
2019-05-19T05:36:41.042Z,17.67
2019-05-19T05:39:12.637Z,16.00
2019-05-19T05:41:44.122Z,15.97
2019-05-19T05:44:15.576Z,14.63
2019-05-19T05:46:47.082Z,16.63
2019-05-19T05:49:18.707Z,16.53
2019-05-19T05:51:50.250Z,15.20
2019-05-19T05:54:21.766Z,15.93
2019-05-19T05:56:53.219Z,16.97
2019-05-19T05:59:24.698Z,17.63
2019-05-19T06:01:56.228Z,16.23
2019-05-19T06:04:27.718Z,24.43
2019-05-19T06:07:00.587Z,20.00
2019-05-19T06:09:32.123Z,17.80
2019-05-19T06:12:03.631Z,16.97
2019-05-19T06:14:35.149Z,16.47
2019-05-19T06:17:06.786Z,18.37
2019-05-19T06:19:38.303Z,16.70
2019-05-19T06:22:09.857Z,17.90
2019-05-19T06:24:41.270Z,21.03
2019-05-19T06:27:13.950Z,14.33
2019-05-19T06:29:45.406Z,16.27
2019-05-19T06:32:24.094Z,17.33
2019-05-19T06:34:55.769Z,17.23
2019-05-19T06:37:27.268Z,17.00
2019-05-19T06:40:00.049Z,17.43
2019-05-19T06:42:31.601Z,18.63
2019-05-19T06:45:03.490Z,20.13
2019-05-19T06:47:36.675Z,17.93
2019-05-19T06:50:09.063Z,18.80
2019-05-19T06:52:40.635Z,12.67
2019-05-19T06:55:12.918Z,16.23
2019-05-19T06:57:44.406Z,18.37
2019-05-19T07:00:16.194Z,18.73
2019-05-19T07:02:47.763Z,17.00
2019-05-19T07:05:19.421Z,19.73
2019-05-19T07:07:50.883Z,18.53
2019-05-19T07:10:22.386Z,19.00
2019-05-19T07:12:54.440Z,16.57
2019-05-19T07:15:25.971Z,17.20
2019-05-19T07:17:57.642Z,19.63
2019-05-19T07:20:33.079Z,19.53
2019-05-19T07:23:08.231Z,19.20
2019-05-19T07:25:39.832Z,17.43
2019-05-19T07:28:11.438Z,16.90
2019-05-19T07:30:42.918Z,17.20
2019-05-19T07:33:14.450Z,17.67
2019-05-19T07:35:45.961Z,17.37
2019-05-19T07:38:17.522Z,17.43
2019-05-19T07:40:49.133Z,17.83
2019-05-19T07:43:21.184Z,16.13
2019-05-19T07:45:52.738Z,15.23
2019-05-19T07:48:24.330Z,14.10
2019-05-19T07:50:55.862Z,13.57
2019-05-19T07:53:27.416Z,13.30
2019-05-19T07:55:58.960Z,22.83
2019-05-19T07:58:30.515Z,15.67
2019-05-19T08:01:02.091Z,12.40
2019-05-19T08:03:33.655Z,11.13
2019-05-19T08:06:05.271Z,8.47
2019-05-19T08:08:37.189Z,7.97
2019-05-19T08:11:10.117Z,10.17
2019-05-19T08:13:41.732Z,7.60
2019-05-19T08:16:13.437Z,7.37
2019-05-19T08:18:45.037Z,5.13
2019-05-19T08:21:16.771Z,4.77
2019-05-19T08:23:59.785Z,3.87
2019-05-19T08:26:21.651Z,3.83
2019-05-19T08:28:53.301Z,5.30
2019-05-19T08:31:24.877Z,5.20
2019-05-19T08:33:56.606Z,5.27
2019-05-19T08:36:28.698Z,4.73
2019-05-19T08:39:00.278Z,4.40
2019-05-19T08:41:31.960Z,4.57
2019-05-19T08:44:04.056Z,4.50
2019-05-19T08:46:35.897Z,3.83
2019-05-19T08:49:07.577Z,4.30
2019-05-19T08:51:39.324Z,4.83
2019-05-19T08:54:15.132Z,4.60
2019-05-19T08:56:44.284Z,4.27
2019-05-19T08:59:15.889Z,3.80
2019-05-19T09:01:47.547Z,4.60
2019-05-19T09:04:19.208Z,4.70
2019-05-19T09:06:52.374Z,4.00
2019-05-19T09:09:24.048Z,3.93
2019-05-19T09:11:55.733Z,3.97
2019-05-19T09:14:27.303Z,3.73
2019-05-19T09:16:58.938Z,7.83
2019-05-19T09:19:31.478Z,5.90
2019-05-19T09:22:02.990Z,4.73
2019-05-19T09:24:37.284Z,5.97
2019-05-19T09:27:07.747Z,6.77
2019-05-19T09:29:39.206Z,6.87
2019-05-19T09:32:11.079Z,8.70
2019-05-19T09:34:42.700Z,10.97
2019-05-19T09:37:14.340Z,11.53
2019-05-19T09:39:45.907Z,12.13
2019-05-19T09:42:17.589Z,12.37
2019-05-19T09:44:49.242Z,11.83
2019-05-19T09:47:21.544Z,12.73
2019-05-19T09:49:53.089Z,13.77
2019-05-19T09:52:24.692Z,14.10
2019-05-19T09:54:56.304Z,14.87
2019-05-19T09:57:27.928Z,16.73
2019-05-19T09:59:59.560Z,15.27
2019-05-19T10:02:31.193Z,14.17
2019-05-19T10:05:09.893Z,15.10
2019-05-19T10:07:41.673Z,17.37
2019-05-19T10:10:16.998Z,15.00
2019-05-19T10:12:48.612Z,17.17
2019-05-19T10:15:20.118Z,16.43
2019-05-19T10:17:51.687Z,18.23
2019-05-19T10:20:23.284Z,19.20
2019-05-19T10:22:55.243Z,19.10
2019-05-19T10:25:26.820Z,17.50
2019-05-19T10:27:58.579Z,19.27
2019-05-19T10:30:30.118Z,19.83
2019-05-19T10:33:02.376Z,20.27
2019-05-19T10:35:33.977Z,18.23
2019-05-19T10:38:06.197Z,18.40
2019-05-19T10:40:37.811Z,17.95
2019-05-19T10:43:10.078Z,18.23
2019-05-19T10:45:41.831Z,20.10
2019-05-19T10:48:14.123Z,19.30
2019-05-19T10:50:46.322Z,17.62
2019-05-19T10:53:18.452Z,16.82
2019-05-19T10:55:51.935Z,17.73
2019-05-19T10:58:24.390Z,18.77
2019-05-19T11:00:56.458Z,19.02
2019-05-19T11:03:28.575Z,15.75
2019-05-19T11:06:00.752Z,17.45
2019-05-19T11:08:33.022Z,15.68
2019-05-19T11:11:05.253Z,14.85
2019-05-19T11:13:38.263Z,15.75
2019-05-19T11:16:10.360Z,14.45
2019-05-19T11:18:42.646Z,15.60
2019-05-19T11:21:14.734Z,13.35
2019-05-19T11:23:47.091Z,15.00
2019-05-19T11:26:19.171Z,13.13
2019-05-19T11:28:51.271Z,12.70
2019-05-19T11:31:23.735Z,14.05
2019-05-19T11:33:55.787Z,12.33
2019-05-19T11:36:27.875Z,11.60
2019-05-19T11:38:59.956Z,13.45
2019-05-19T11:41:32.049Z,11.15
2019-05-19T11:44:04.745Z,11.48
2019-05-19T11:46:36.876Z,11.18
2019-05-19T11:49:08.938Z,11.35
2019-05-19T11:51:41.042Z,10.80
2019-05-19T11:54:13.107Z,9.80
2019-05-19T11:56:45.199Z,10.68
2019-05-19T11:59:17.262Z,12.05
2019-05-19T12:01:49.347Z,10.50
2019-05-19T12:04:21.558Z,11.43
2019-05-19T12:06:53.815Z,10.18
2019-05-19T12:09:26.149Z,9.28
2019-05-19T12:11:58.390Z,9.63
2019-05-19T12:14:31.800Z,9.70
2019-05-19T12:17:03.986Z,10.13
2019-05-19T12:19:36.128Z,11.00
2019-05-19T12:22:08.303Z,10.82
2019-05-19T12:24:40.457Z,10.95
2019-05-19T12:27:12.740Z,10.68
2019-05-19T12:29:44.867Z,11.65
2019-05-19T12:32:16.988Z,9.73
2019-05-19T12:34:49.131Z,10.18
2019-05-19T12:37:21.214Z,9.08
2019-05-19T12:39:53.279Z,8.50
2019-05-19T12:42:25.370Z,9.15
2019-05-19T12:44:57.466Z,7.87
2019-05-19T12:47:29.530Z,8.10
2019-05-19T12:50:01.832Z,8.93
2019-05-19T12:52:34.280Z,7.53
2019-05-19T12:55:07.272Z,7.67
2019-05-19T12:57:39.393Z,6.37
2019-05-19T13:00:11.502Z,6.70
2019-05-19T13:02:43.670Z,6.85
2019-05-19T13:05:15.756Z,6.22
2019-05-19T13:07:47.812Z,6.55
2019-05-19T13:10:20.195Z,6.22
2019-05-19T13:12:52.254Z,6.42
2019-05-19T13:15:24.280Z,6.05
2019-05-19T13:17:56.350Z,6.25
2019-05-19T13:20:28.362Z,5.90
2019-05-19T13:23:00.499Z,5.67
2019-05-19T13:25:32.562Z,5.45
2019-05-19T13:28:04.699Z,5.72
2019-05-19T13:30:36.772Z,4.70
2019-05-19T13:33:08.872Z,6.10
2019-05-19T13:35:41.339Z,5.80
2019-05-19T13:38:13.495Z,6.33
2019-05-19T13:40:45.549Z,6.42
2019-05-19T13:43:17.611Z,5.87
2019-05-19T13:45:49.708Z,5.42
2019-05-19T13:48:22.236Z,6.00
2019-05-19T13:50:54.378Z,6.85
2019-05-19T13:53:26.434Z,6.60
2019-05-19T13:55:58.546Z,8.45
2019-05-19T13:58:30.655Z,7.33
2019-05-19T14:01:02.872Z,9.08
2019-05-19T14:03:35.937Z,8.35
2019-05-19T14:06:08.069Z,11.05
2019-05-19T14:08:40.166Z,11.63
2019-05-19T14:11:12.257Z,13.30
2019-05-19T14:13:44.360Z,11.00
2019-05-19T14:16:16.400Z,10.50
2019-05-19T14:18:49.885Z,13.95
2019-05-19T14:21:22.069Z,11.20
2019-05-19T14:23:55.005Z,9.85
2019-05-19T14:26:27.039Z,6.80
2019-05-19T14:28:59.484Z,6.33
2019-05-19T14:31:31.620Z,14.05
2019-05-19T14:34:03.768Z,15.80
2019-05-19T14:36:36.186Z,15.05
2019-05-19T14:39:08.375Z,14.58
2019-05-19T14:41:45.515Z,22.95
2019-05-19T14:44:17.598Z,17.65
2019-05-19T14:46:49.721Z,14.23
2019-05-19T14:49:21.796Z,18.35
2019-05-19T14:51:53.917Z,16.97
2019-05-19T14:54:26.043Z,13.60
2019-05-19T14:56:58.173Z,11.03
2019-05-19T14:59:30.454Z,11.78
2019-05-19T15:02:03.489Z,9.08
2019-05-19T15:04:35.583Z,8.95
2019-05-19T15:07:07.715Z,7.85
2019-05-19T15:09:39.838Z,6.78
2019-05-19T15:12:11.998Z,11.80
2019-05-19T15:14:44.274Z,10.70
2019-05-19T15:17:16.389Z,11.18
2019-05-19T15:19:48.524Z,11.00
2019-05-19T15:22:20.565Z,7.28
2019-05-19T15:24:52.850Z,6.95
2019-05-19T15:27:24.934Z,5.85
2019-05-19T15:30:11.472Z,15.23
2019-05-19T15:32:30.656Z,9.30
2019-05-19T15:35:02.733Z,5.62
2019-05-19T15:37:34.801Z,11.33
2019-05-19T15:40:08.377Z,8.50
2019-05-19T15:42:40.649Z,5.22
2019-05-19T15:45:12.938Z,4.72
2019-05-19T15:47:44.974Z,6.35
2019-05-19T15:50:17.985Z,4.90
2019-05-19T15:52:50.047Z,3.45
2019-05-19T15:55:22.150Z,3.92
2019-05-19T15:57:55.403Z,3.17
2019-05-19T16:00:27.501Z,8.48
2019-05-19T16:02:59.718Z,3.08
2019-05-19T16:05:31.883Z,2.90
2019-05-19T16:08:04.005Z,2.72
2019-05-19T16:10:36.082Z,2.60
2019-05-19T16:13:08.291Z,2.65
2019-05-19T16:15:40.338Z,2.95
2019-05-19T16:18:12.498Z,2.83
2019-05-19T16:20:44.520Z,3.00
2019-05-19T16:23:16.597Z,2.92
2019-05-19T16:25:48.618Z,3.12
2019-05-19T16:28:30.401Z,3.02
2019-05-19T16:30:54.380Z,6.12
2019-05-19T16:33:26.515Z,3.85
2019-05-19T16:35:58.639Z,3.72
2019-05-19T16:38:30.761Z,3.62
2019-05-19T16:41:02.777Z,3.70
2019-05-19T16:43:34.943Z,3.25
2019-05-19T16:46:07.033Z,3.75
2019-05-19T16:48:39.179Z,3.60
2019-05-19T16:51:11.271Z,3.67
2019-05-19T16:53:44.971Z,3.98
2019-05-19T16:56:17.398Z,3.95
2019-05-19T16:58:49.467Z,3.90
2019-05-19T17:01:21.479Z,4.10
2019-05-19T17:03:53.562Z,3.90
2019-05-19T17:06:25.970Z,4.08
2019-05-19T17:08:58.086Z,4.55
2019-05-19T17:11:30.199Z,4.90
2019-05-19T17:14:02.374Z,4.80
2019-05-19T17:16:34.539Z,4.87
2019-05-19T17:19:06.678Z,4.55
2019-05-19T17:21:38.650Z,4.17
2019-05-19T17:24:11.095Z,4.47
2019-05-19T17:26:43.130Z,4.37
2019-05-19T17:29:15.225Z,5.10
2019-05-19T17:31:47.525Z,4.30
2019-05-19T17:34:19.571Z,4.30
2019-05-19T17:36:51.676Z,4.30
2019-05-19T17:39:24.087Z,3.80
2019-05-19T17:41:56.094Z,4.45
2019-05-19T17:44:28.144Z,4.55
2019-05-19T17:47:00.171Z,4.45
2019-05-19T17:49:32.352Z,4.92
2019-05-19T17:52:04.657Z,3.67
2019-05-19T17:54:36.722Z,4.12
2019-05-19T17:57:09.012Z,5.65
2019-05-19T17:59:44.543Z,4.53
2019-05-19T18:02:16.614Z,5.10
2019-05-19T18:04:48.803Z,4.47
2019-05-19T18:07:20.853Z,5.08
2019-05-19T18:09:53.029Z,5.37
2019-05-19T18:12:25.131Z,5.08
2019-05-19T18:14:57.166Z,5.15
2019-05-19T18:17:29.199Z,5.47
2019-05-19T18:20:01.251Z,5.67
2019-05-19T18:22:33.382Z,5.92
2019-05-19T18:25:06.074Z,5.85
2019-05-19T18:27:38.727Z,5.85
2019-05-19T18:30:13.238Z,5.85
2019-05-19T18:32:45.430Z,5.20
2019-05-19T18:35:17.688Z,5.00
2019-05-19T18:37:49.380Z,5.73
2019-05-19T18:40:21.183Z,8.13
2019-05-19T18:42:53.305Z,6.85
2019-05-19T18:45:26.069Z,6.67
2019-05-19T18:47:58.026Z,6.70
2019-05-19T18:50:30.712Z,9.23
2019-05-19T18:53:02.479Z,11.50
2019-05-19T18:55:34.843Z,7.42
2019-05-19T18:58:06.459Z,6.47
2019-05-19T19:00:39.109Z,7.93
2019-05-19T19:03:11.569Z,7.17
2019-05-19T19:05:43.191Z,7.33
2019-05-19T19:08:14.807Z,6.37
2019-05-19T19:10:46.455Z,5.87
2019-05-19T19:13:18.292Z,8.50
2019-05-19T19:15:50.128Z,5.50
2019-05-19T19:18:21.731Z,5.63
2019-05-19T19:20:53.354Z,5.30
2019-05-19T19:23:24.979Z,4.47
2019-05-19T19:25:56.632Z,5.53
2019-05-19T19:28:28.403Z,4.80
2019-05-19T19:31:00.433Z,4.30
2019-05-19T19:33:32.067Z,3.70
2019-05-19T19:36:03.802Z,3.70
2019-05-19T19:38:35.479Z,3.70
2019-05-19T19:41:09.512Z,4.87
2019-05-19T19:43:42.832Z,9.07
2019-05-19T19:46:14.609Z,4.53
2019-05-19T19:48:46.361Z,4.27
2019-05-19T19:51:18.147Z,3.93
2019-05-19T19:53:49.741Z,4.53
2019-05-19T19:56:22.494Z,4.57
2019-05-19T19:58:54.076Z,4.10
2019-05-19T20:01:25.620Z,4.60
2019-05-19T20:03:57.215Z,7.40
2019-05-19T20:06:28.813Z,7.67
2019-05-19T20:09:00.341Z,4.13
2019-05-19T20:11:31.929Z,3.70
2019-05-19T20:14:03.689Z,3.53
2019-05-19T20:16:35.194Z,3.77
2019-05-19T20:19:06.685Z,3.63
2019-05-19T20:21:38.182Z,5.50
2019-05-19T20:24:09.650Z,5.27
2019-05-19T20:26:41.539Z,4.43
2019-05-19T20:29:14.199Z,4.90
2019-05-19T20:31:45.777Z,6.33
2019-05-19T20:34:17.279Z,11.30
2019-05-19T20:36:48.832Z,17.10
2019-05-19T20:39:20.644Z,8.83
2019-05-19T20:41:52.166Z,6.87
2019-05-19T20:44:23.637Z,6.03
2019-05-19T20:46:55.133Z,6.17
2019-05-19T20:49:26.589Z,4.43
2019-05-19T20:51:58.176Z,4.30
2019-05-19T20:54:29.630Z,5.90
2019-05-19T20:57:01.150Z,7.53
2019-05-19T20:59:32.947Z,5.53
2019-05-19T21:02:04.478Z,7.80
2019-05-19T21:04:35.941Z,5.07
2019-05-19T21:07:07.981Z,6.27
2019-05-19T21:09:39.948Z,10.13
2019-05-19T21:12:11.596Z,15.87
2019-05-19T21:14:43.141Z,12.20
2019-05-19T21:17:14.695Z,5.63
2019-05-19T21:19:47.814Z,4.83
2019-05-19T21:22:19.387Z,3.40
2019-05-19T21:24:50.927Z,2.90
2019-05-19T21:27:22.503Z,3.87
2019-05-19T21:29:54.026Z,2.50
2019-05-19T21:32:25.578Z,3.03
2019-05-19T21:34:57.042Z,2.33
2019-05-19T21:37:28.527Z,2.07
2019-05-19T21:40:00.352Z,2.50
2019-05-19T21:42:31.867Z,2.30
2019-05-19T21:45:03.341Z,2.00
2019-05-19T21:47:35.785Z,1.80
2019-05-19T21:50:08.334Z,2.43
2019-05-19T21:52:39.847Z,2.07
2019-05-19T21:55:11.492Z,2.33
2019-05-19T21:57:42.956Z,2.13
2019-05-19T22:00:15.693Z,2.37
2019-05-19T22:02:48.774Z,2.37
2019-05-19T22:05:20.258Z,2.63
2019-05-19T22:08:08.799Z,2.40
2019-05-19T22:10:40.262Z,2.67
2019-05-19T22:13:11.750Z,2.90
2019-05-19T22:15:43.266Z,2.40
2019-05-19T22:18:14.870Z,2.70
2019-05-19T22:20:46.781Z,2.40
2019-05-19T22:23:18.441Z,2.90
2019-05-19T22:25:50.031Z,5.10
2019-05-19T22:28:21.547Z,4.63
2019-05-19T22:30:53.054Z,4.73
2019-05-19T22:33:25.862Z,4.57
2019-05-19T22:35:57.358Z,4.43
2019-05-19T22:38:30.108Z,4.47
2019-05-19T22:41:01.637Z,4.00
2019-05-19T22:43:33.340Z,4.60
2019-05-19T22:46:04.792Z,3.60
2019-05-19T22:48:36.295Z,4.10
2019-05-19T22:51:08.942Z,3.53
2019-05-19T22:53:40.502Z,3.53
2019-05-19T22:56:12.106Z,4.37
2019-05-19T22:58:43.598Z,3.77
2019-05-19T23:01:30.952Z,4.33
2019-05-19T23:04:02.507Z,3.83
2019-05-19T23:06:34.023Z,4.07
2019-05-19T23:09:07.515Z,3.60
2019-05-19T23:11:38.974Z,3.70
2019-05-19T23:14:12.083Z,3.47
2019-05-19T23:16:43.537Z,3.87
2019-05-19T23:19:15.074Z,4.00
2019-05-19T23:21:46.682Z,3.73
2019-05-19T23:24:18.338Z,3.83
2019-05-19T23:26:49.774Z,4.03
2019-05-19T23:29:21.289Z,3.53
2019-05-19T23:32:06.215Z,4.10
2019-05-19T23:34:25.863Z,6.43
2019-05-19T23:36:57.382Z,8.17
2019-05-19T23:39:28.782Z,6.73
2019-05-19T23:42:00.594Z,11.63
2019-05-19T23:44:32.118Z,7.07
2019-05-19T23:47:03.673Z,7.57
2019-05-19T23:49:35.090Z,5.83
2019-05-19T23:52:06.754Z,5.17
2019-05-19T23:54:38.203Z,4.93
2019-05-19T23:57:09.649Z,5.00
2019-05-19T23:59:41.162Z,4.57
